00TA weather

Sw Region Faa Heliport
Fort Worth, Texas, United States

Public forecast

Using degrees Fahrenheit for public forecast. Weather courtesy of forecast.io.

METAR (pilot weather report)

Closest report is Fort Worth Meacham International Airport, 2.9 nm (5.3 km) W. Retrieved 2019/07/23 17:53 UTC (1 hour ago):

KFTW 231753Z 01014G20KT 10SM BKN060 28/14 A3014 RMK AO2 SLP199 T02830144 10294 20206 58008 $

TAF (pilot weather forecast)

Closest forecast is Fort Worth Meacham International Airport, 2.9 nm (5.3 km) W. Retrieved 2019/07/23 18:22 UTC (33 minutes ago):

TAF KFTW 231720Z 2318/2418 03012G18KT P6SM FEW060 SCT250 FM240000 03010KT P6SM FEW050 SCT250 FM240900 02005KT P6SM SCT250 FM241500 11007KT P6SM SCT250